Date,TemperatureHighF,TemperatureAvgF,TemperatureLowF,DewpointHighF,DewpointAvgF,DewpointLowF,HumidityHigh,HumidityAvg,HumidityLow,PressureMaxIn,PressureMinIn,WindSpeedMaxMPH,WindSpeedAvgMPH,GustSpeedMaxMPH,PrecipitationSumIn
2012-1-1,50.0,40.8,32.0,43.0,36.4,32.0,100,86,57,30.06,29.60,11,0,13,0.11
2012-1-2,45.0,37.4,29.0,45.0,27.0,15.5,100,68,35,29.75,29.49,24,2,24,0.03
2012-1-3,29.0,25.0,11.0,16.9,8.4,-0.5,70,50,33,30.16,29.73,14,0,16,0.00
2012-1-4,28.0,22.6,4.0,3.8,-0.6,-6.1,88,37,24,30.25,30.04,14,1,14,0.00
2012-1-5,38.0,30.3,22.0,25.0,18.5,11.3,75,62,45,29.99,29.74,15,1,15,0.00
2012-1-6,46.0,33.4,23.0,29.7,23.5,16.8,91,69,42,29.99,29.69,5,0,6,0.00
2012-1-7,56.0,38.1,24.0,34.5,27.7,18.9,100,70,35,29.87,29.54,8,0,8,0.00
2012-1-8,41.0,34.5,23.0,29.2,23.4,15.6,85,65,41,30.35,29.87,10,0,10,0.00
2012-1-9,38.0,27.3,18.0,16.9,14.2,9.0,89,60,32,30.39,30.02,8,0,8,0.00
2012-1-10,47.0,34.5,27.0,28.9,24.0,16.6,95,67,41,30.02,29.69,16,1,16,0.00
2012-1-11,37.0,29.9,22.0,29.4,21.5,13.8,96,74,42,30.20,30.02,8,0,8,0.00
2012-1-12,32.0,30.3,30.0,30.0,29.9,29.4,100,99,90,30.11,29.62,0,0,2,0.01
2012-1-13,43.0,31.0,27.0,36.7,28.3,19.1,100,91,57,29.63,29.14,17,4,28,0.73
2012-1-14,33.0,29.8,25.0,23.0,18.5,7.2,77,64,36,29.93,29.58,14,4,29,0.00
2012-1-16,29.0,26.1,12.0,29.0,10.3,-3.6,100,55,32,30.68,30.15,12,3,15,0.00
2012-1-17,44.0,35.5,29.0,41.0,32.7,27.4,100,91,56,30.15,29.42,9,1,14,0.24
2012-1-18,45.0,35.1,20.0,44.0,20.4,0.2,100,58,33,30.18,29.36,15,4,25,0.05
2012-1-19,30.0,21.7,7.0,23.3,9.0,2.3,93,61,39,30.44,30.03,6,0,10,0.00
2012-1-20,32.0,24.0,15.0,26.0,12.7,3.2,100,67,30,30.39,29.98,7,1,15,0.10
2012-1-21,20.0,15.3,8.0,17.5,11.0,2.4,100,84,59,30.50,30.23,0,0,2,0.00
2012-1-22,32.0,15.0,4.0,20.2,9.9,3.3,100,83,37,30.70,30.50,5,0,6,0.12
2012-1-23,38.0,32.0,25.0,38.0,29.6,21.4,100,91,72,30.53,29.88,0,0,3,0.30
2012-1-24,56.0,45.1,34.0,46.0,39.0,27.6,100,82,46,30.02,29.76,10,1,14,0.03
2012-1-25,40.0,36.1,32.0,26.6,24.1,21.4,78,62,49,30.22,30.06,8,1,15,0.00
2012-1-27,37.0,36.5,36.0,31.7,31.4,31.1,84,82,79,29.59,29.55,9,3,12,1.54
2012-1-28,48.0,39.1,31.0,31.1,27.0,19.8,90,64,35,29.98,29.59,10,2,19,0.00
2012-1-29,43.0,36.0,31.0,29.2,15.0,8.6,76,44,24,30.08,29.85,16,3,27,0.08
2012-1-30,40.0,32.5,24.0,29.2,15.4,6.1,93,52,24,30.33,29.94,13,2,25,0.00
2012-1-31,44.0,35.2,25.0,33.2,27.6,24.2,100,75,50,30.25,29.99,2,0,3,0.00
2012-2-1,55.0,42.0,29.0,41.8,35.7,29.0,100,80,58,30.04,29.66,15,2,17,0.02
2012-2-2,41.0,35.1,30.0,31.4,27.9,25.5,86,75,57,30.15,30.02,1,0,4,0.00
2012-2-3,41.0,29.1,18.0,18.9,12.0,3.3,89,51,22,30.44,30.26,8,1,13,0.00
2012-2-4,42.0,34.9,22.0,25.9,17.8,9.4,80,52,32,30.28,30.10,6,1,11,0.00
2012-2-5,39.0,24.8,12.0,14.3,8.8,1.6,99,56,21,30.29,30.04,5,0,9,0.00
2012-2-6,53.0,44.0,23.0,22.7,19.2,13.3,67,38,24,30.14,29.72,13,3,17,0.04
2012-2-7,45.0,35.0,24.0,26.0,21.6,15.0,74,59,37,30.29,29.89,7,0,16,0.00
2012-2-8,39.0,29.1,12.0,11.6,6.3,0.1,94,42,20,30.42,30.09,5,1,9,0.00
2012-2-9,49.0,35.3,24.0,16.7,11.2,4.8,64,39,18,30.12,29.88,9,1,12,0.00
2012-2-10,51.0,38.0,25.0,26.1,16.5,9.8,66,44,20,30.14,29.86,9,1,17,0.00
2012-2-11,40.0,34.0,23.0,28.6,23.4,13.3,87,66,43,29.87,29.58,3,0,11,0.00
2012-2-12,28.0,18.2,10.0,13.0,1.1,-5.3,73,49,25,29.83,29.64,10,1,18,0.00
2012-2-13,41.0,33.2,20.0,18.8,15.8,12.3,81,50,32,30.02,29.75,16,3,22,0.27
2012-2-14,44.0,33.0,22.0,20.4,13.6,8.6,84,48,24,30.15,29.99,7,0,10,0.00
2012-2-15,45.0,35.4,31.0,34.8,27.4,15.4,95,74,52,30.26,30.10,3,0,4,0.00
2012-2-16,42.0,37.1,32.0,37.0,34.7,30.5,100,92,65,30.26,30.03,7,0,7,0.11
2012-2-17,52.0,41.2,36.0,41.0,33.9,21.4,100,81,31,30.03,29.75,10,2,16,0.03
2012-2-18,49.0,46.5,43.0,15.1,14.8,14.6,32,28,25,29.88,29.75,12,9,15,0.00
2012-2-19,48.0,29.3,24.0,18.2,16.5,15.2,71,60,28,30.10,29.91,0,0,3,0.02
2012-2-20,44.0,27.9,20.0,18.2,13.2,2.7,81,58,19,30.37,30.06,7,0,15,0.00
2012-2-21,44.0,32.2,20.0,25.7,16.8,11.3,95,58,27,30.41,29.98,9,1,12,0.03
2012-2-22,56.0,46.5,33.0,36.0,27.8,19.0,100,53,26,29.72,29.46,13,3,20,0.00
2012-2-23,51.0,42.7,35.0,44.6,31.6,19.7,97,67,32,29.79,29.31,10,1,19,0.05
2012-2-24,39.0,35.4,31.0,39.0,32.6,22.3,100,90,64,29.82,29.23,3,0,11,0.91
2012-2-25,44.0,34.2,28.0,34.0,24.5,16.7,100,70,37,29.81,29.21,20,3,28,1.22
2012-2-26,41.0,32.1,23.0,16.7,2.8,-5.1,64,31,16,30.50,29.83,15,2,19,0.09
2012-2-27,49.0,43.0,32.0,31.1,25.6,11.0,73,51,33,30.44,30.00,11,2,13,0.00
2012-2-28,49.0,36.4,26.0,30.8,18.1,10.9,76,49,22,30.44,30.01,9,1,20,0.00
2012-2-29,35.0,29.7,26.0,32.0,21.3,11.2,100,74,43,30.43,29.98,1,0,8,0.00
2012-3-1,32.0,28.3,20.0,32.0,28.3,20.0,100,100,100,30.12,29.81,4,0,9,0.00
2012-3-2,29.0,23.3,18.0,28.0,23.1,18.0,100,99,92,30.26,30.04,0,0,1,0.04
2012-3-3,41.0,35.0,28.0,39.4,34.3,27.5,100,98,75,30.04,29.36,6,0,8,2.15
2012-3-4,43.0,33.6,27.0,29.4,22.1,15.6,92,64,34,29.70,29.50,7,0,10,0.11
2012-3-5,38.0,28.6,19.0,23.9,12.2,6.1,88,52,27,30.37,29.68,10,2,17,0.04
2012-3-6,40.0,26.8,12.0,9.5,3.3,-4.8,77,41,15,30.62,30.45,10,1,12,0.01
2012-3-7,59.0,47.0,27.0,33.1,24.1,5.7,63,42,29,30.60,30.12,10,3,16,0.03
2012-3-8,69.0,56.1,44.0,48.7,43.0,33.0,88,63,37,30.18,29.53,19,6,29,0.72
2012-3-9,60.0,41.1,31.0,51.5,23.7,11.1,99,53,23,30.17,29.53,14,2,26,0.05
2012-3-10,43.0,31.8,27.0,30.8,22.5,12.6,100,71,31,30.55,30.16,6,0,8,0.01
2012-3-11,58.0,41.7,26.0,26.3,21.4,13.6,94,51,22,30.54,30.11,11,2,20,0.04
2012-3-12,75.0,54.6,39.0,34.0,27.8,21.1,65,39,18,30.22,29.90,6,1,12,0.00
2012-3-13,73.0,59.1,51.0,56.3,44.9,28.5,96,61,36,30.00,29.64,12,2,16,0.17
2012-3-14,56.0,56.0,56.0,54.9,54.8,54.6,96,96,95,29.85,29.82,0,0,8,0.00
2012-4-4,66.0,50.6,38.0,38.5,25.9,10.9,77,45,15,29.64,29.30,10,1,22,0.03
2012-4-5,53.0,41.3,34.0,32.1,25.9,18.0,89,59,27,29.91,29.65,17,0,17,0.00
2012-4-6,55.0,46.6,34.0,22.6,17.9,13.8,61,33,23,30.00,29.77,8,1,14,0.00
2012-4-7,58.0,42.6,31.0,31.4,19.9,8.6,75,43,20,30.01,29.82,12,0,12,0.00
2012-4-8,50.0,42.6,36.0,31.7,25.7,17.3,79,53,28,29.98,29.57,9,0,15,0.00
2012-4-9,52.0,44.3,37.0,32.8,30.2,27.1,74,58,41,29.60,29.41,19,4,25,0.18
2012-4-10,60.0,53.5,41.0,31.2,27.8,24.3,62,39,27,29.73,29.47,11,3,19,0.00
2012-4-11,43.0,43.0,43.0,28.8,28.8,28.8,57,57,57,29.73,29.73,0,0,4,0.00
2012-5-25,66.0,66.0,66.0,66.0,66.0,66.0,100,100,100,29.95,29.94,0,0,4,0.00
2012-5-26,87.0,74.1,64.0,70.2,62.0,48.5,100,70,27,29.95,29.72,8,0,10,0.00
2012-5-27,81.0,68.3,57.0,57.3,51.8,42.2,87,59,30,30.06,29.80,7,0,9,0.00
2012-5-28,79.0,66.4,55.0,60.1,55.3,47.6,96,70,42,29.92,29.69,5,0,9,0.00
2012-5-29,73.0,62.2,59.0,65.3,59.9,53.8,100,92,72,29.83,29.54,3,0,7,0.10
2012-5-30,77.0,67.3,59.0,66.0,61.6,53.9,100,84,53,29.62,29.46,4,0,8,0.03
2012-5-31,83.0,69.0,59.0,61.3,54.5,44.8,99,64,27,29.81,29.49,7,0,14,0.00
2012-6-1,73.0,62.2,53.0,50.7,44.4,34.5,88,56,25,29.97,29.81,7,0,9,0.00
2012-6-2,59.0,55.7,51.0,59.0,55.0,46.3,100,97,74,29.92,29.58,5,0,11,0.14
2012-6-3,60.0,56.9,51.0,58.0,55.2,50.2,100,94,74,29.61,29.55,3,0,7,0.01
2012-6-4,51.0,49.5,48.0,51.0,49.4,47.7,100,99,97,29.76,29.58,3,0,10,0.01
2012-6-5,48.0,48.0,48.0,48.0,48.0,48.0,100,100,100,29.75,29.75,0,0,0,0.00
2012-6-17,70.0,61.4,49.0,54.0,50.4,47.1,94,69,48,30.11,29.94,8,0,8,0.00
2012-6-18,71.0,57.5,48.0,57.1,50.0,45.5,97,78,47,30.12,29.92,6,0,6,0.00
2012-6-19,75.0,68.6,54.0,65.1,58.3,47.5,100,70,55,30.06,29.82,10,1,10,0.00
2012-6-20,96.0,88.0,79.0,78.5,72.7,64.6,88,63,39,29.71,29.51,5,0,13,0.00
2012-6-21,96.0,81.6,71.0,73.8,68.3,58.6,96,69,37,29.66,29.43,7,0,7,0.00
2012-6-22,93.0,80.5,77.0,69.8,68.7,64.3,77,69,39,29.53,29.38,10,2,10,0.00
2012-6-23,81.0,70.6,67.0,74.2,63.4,58.0,91,78,68,29.71,29.53,14,1,14,0.00
2012-6-24,86.0,79.8,63.0,56.4,49.1,43.0,79,36,25,29.79,29.62,5,0,9,0.00
2012-6-25,71.0,65.9,62.0,65.8,62.3,55.1,100,89,68,29.64,29.47,6,1,10,0.00
2012-6-26,72.0,67.9,57.0,58.2,56.1,53.0,98,67,52,29.50,29.36,5,1,9,0.00
2012-6-27,76.0,65.3,57.0,58.0,55.3,50.3,94,72,42,29.49,29.40,8,2,9,0.00
2012-6-28,81.0,80.4,79.0,59.4,56.5,52.9,50,44,38,29.49,29.48,3,1,8,0.00
2012-6-29,89.0,70.0,63.0,70.9,64.7,62.4,100,86,45,29.57,29.23,9,2,9,0.00
2012-6-30,87.0,83.4,80.0,60.3,54.0,49.8,48,37,28,29.45,29.39,8,4,10,0.00
2012-7-1,92.0,86.2,80.0,59.3,54.8,51.0,43,35,25,29.54,29.45,11,4,11,0.00
2012-7-2,80.0,80.0,80.0,62.3,62.3,62.3,55,55,55,29.63,29.63,0,0,0,0.00
2012-7-3,87.0,84.2,82.0,55.1,51.7,47.4,35,33,30,29.64,29.59,0,0,0,0.00
2012-7-4,72.0,66.4,65.0,68.7,65.9,63.0,100,98,75,29.66,29.57,2,0,6,0.02
2012-7-5,86.0,82.7,79.0,63.5,60.2,54.5,54,47,43,29.51,29.48,2,0,4,0.00
2012-7-8,89.0,87.0,86.0,59.7,57.5,55.9,40,37,33,29.51,29.49,10,2,10,0.00
2012-7-9,85.0,84.7,84.0,47.2,46.2,45.1,27,26,25,29.65,29.64,8,6,10,0.00
2012-7-10,84.0,84.0,84.0,46.3,44.9,43.2,27,26,24,29.76,29.74,8,5,10,0.00
2012-7-11,71.0,71.0,71.0,61.1,61.1,61.1,71,71,71,29.99,29.99,1,1,4,0.00
2012-7-12,69.0,69.0,69.0,62.9,62.9,62.9,81,81,81,30.02,30.02,0,0,4,0.00
2012-7-13,91.0,85.7,77.0,70.9,68.4,65.7,71,57,45,29.92,29.80,10,3,10,0.00
2012-7-14,72.0,72.0,72.0,65.1,65.1,65.1,79,79,79,29.94,29.94,6,6,6,0.00
2012-7-15,91.0,85.3,76.0,73.4,65.9,60.0,88,54,38,29.75,29.64,5,1,8,0.00
2012-7-16,94.0,86.6,69.0,72.9,65.8,60.2,100,52,36,29.65,29.41,6,1,11,0.00
2012-7-17,94.0,88.6,77.0,69.7,66.2,59.7,72,48,38,29.55,29.29,11,2,18,0.00
2012-7-18,88.0,81.8,76.0,78.5,72.5,65.2,97,75,47,29.63,29.52,4,0,7,0.02
2012-7-19,86.0,84.0,81.0,51.7,48.8,47.2,32,30,27,29.72,29.66,8,2,8,0.00
2012-7-21,81.0,72.4,65.0,53.4,51.3,43.9,65,50,29,29.95,29.81,6,2,8,0.00
2012-7-22,89.0,82.2,61.0,62.9,57.7,50.9,86,45,31,30.00,29.76,9,3,12,0.00
2012-7-23,86.0,80.2,65.0,71.9,67.0,59.7,92,66,49,29.92,29.55,10,3,14,0.00
2012-7-24,92.0,75.9,61.0,79.1,67.0,57.6,99,78,36,29.58,29.19,7,0,12,0.01
2012-7-25,84.0,74.3,58.0,57.7,52.1,45.6,92,49,31,29.65,29.51,6,1,9,0.00
2012-7-26,80.0,77.7,73.0,64.3,61.5,58.3,70,58,51,29.49,29.38,6,4,9,0.00
2012-7-27,69.0,66.2,65.0,67.5,65.6,64.1,100,98,95,29.63,29.43,0,0,3,0.00
2012-7-28,84.0,67.0,65.0,67.4,65.8,62.7,100,97,51,29.84,29.69,0,0,4,0.00
2012-7-29,70.0,64.7,63.0,67.0,64.3,60.9,100,99,73,29.85,29.80,2,0,6,0.00
2012-7-30,86.0,77.9,57.0,63.9,60.0,53.0,100,57,39,30.00,29.77,7,2,11,0.00
2012-7-31,82.0,68.1,65.0,62.3,61.7,59.1,90,82,46,29.95,29.74,4,1,6,0.00
2012-8-1,85.0,80.0,73.0,74.1,66.5,61.5,97,66,47,29.68,29.57,7,4,10,0.00
2012-8-3,96.0,91.0,85.0,66.4,61.4,55.1,54,39,29,29.68,29.61,13,3,13,0.00
2012-8-4,90.0,76.3,68.0,80.4,73.0,68.0,100,91,67,30.04,29.87,4,1,6,0.00
2012-8-5,92.0,78.0,69.0,77.4,71.4,67.5,100,84,47,30.01,29.65,10,2,18,0.00
2012-8-6,85.0,74.8,64.0,74.0,64.2,55.7,100,73,38,29.85,29.65,10,0,11,0.00
2012-8-7,85.0,70.6,58.0,65.1,59.4,49.6,100,72,38,29.91,29.67,8,0,11,0.00
2012-8-8,87.0,79.9,64.0,67.9,60.3,51.7,96,54,31,29.84,29.44,7,2,11,2.54
2012-8-9,89.0,74.7,66.0,72.8,67.4,56.8,99,81,35,29.53,29.41,9,1,10,0.00
2012-8-10,82.0,73.7,69.0,73.8,70.4,66.7,99,90,60,29.49,29.39,7,2,10,0.73
2012-8-11,79.0,74.4,69.0,73.8,70.6,68.6,99,89,75,29.48,29.41,5,1,6,1.10
2012-8-12,81.0,75.8,69.0,74.5,71.0,67.1,99,86,70,29.47,29.37,7,2,10,0.65
2012-8-13,83.0,72.9,63.0,68.7,63.4,58.8,99,75,46,29.51,29.43,7,2,10,0.00
2012-8-14,81.0,71.1,62.0,68.2,62.9,60.2,98,77,51,29.53,29.45,7,2,9,0.00
2012-8-15,80.0,71.3,65.0,69.8,66.6,62.8,99,87,56,29.49,29.39,6,1,9,0.21
2012-8-16,82.0,73.8,64.0,69.7,63.9,59.3,99,73,47,29.44,29.32,10,1,10,0.52
2012-8-17,83.0,71.8,60.0,69.5,63.7,59.3,99,78,52,29.43,29.28,9,2,15,0.21
2012-8-18,78.0,66.9,58.0,66.2,63.2,56.6,99,89,52,29.49,29.39,6,0,9,0.03
2012-8-19,75.0,64.5,53.0,62.8,56.4,52.2,98,77,50,29.57,29.47,6,1,7,0.00
2012-8-20,78.0,66.4,55.0,63.5,57.8,52.4,98,77,44,29.52,29.39,6,1,8,0.00
2012-8-21,80.0,69.5,61.0,63.6,58.3,47.4,98,71,32,29.67,29.48,8,1,9,0.00
2012-8-22,81.0,67.8,56.0,61.5,56.1,49.5,98,70,37,29.73,29.63,7,1,8,0.00
2012-8-23,83.0,72.2,60.0,66.7,61.0,55.9,98,70,41,29.71,29.60,6,1,9,0.00
2012-8-24,83.0,71.5,60.0,66.2,62.5,58.6,98,76,49,29.80,29.68,7,1,8,0.00
2012-8-25,81.0,70.0,61.0,68.2,61.2,52.8,99,77,41,29.92,29.80,7,1,9,0.00
2012-8-26,83.0,69.1,57.0,65.9,59.3,56.1,98,74,44,29.94,29.78,6,1,8,0.00
2012-8-27,83.0,71.0,58.0,68.2,63.0,57.4,98,78,50,29.81,29.48,9,3,12,0.00
2012-8-28,84.0,72.7,62.0,71.2,65.9,56.1,99,81,47,29.48,29.24,7,1,11,0.20
2012-8-29,77.0,63.6,51.0,55.7,50.5,42.6,97,66,35,29.57,29.47,7,0,10,0.00
2012-8-30,79.0,66.9,54.0,55.2,52.4,48.8,91,63,36,29.63,29.49,13,3,15,0.00
2012-8-31,88.0,74.5,60.0,60.1,55.1,47.9,82,53,27,29.53,29.32,17,2,17,0.00
2012-9-1,80.0,69.6,58.0,67.2,58.6,51.8,99,70,44,29.73,29.41,9,1,10,0.00
2012-9-2,76.0,63.3,56.0,61.5,57.2,48.8,98,83,49,29.75,29.61,9,0,9,0.01
2012-9-3,78.0,65.4,55.0,61.4,57.6,52.8,98,79,45,29.82,29.70,10,1,10,0.00
2012-9-4,68.0,63.8,60.0,67.7,62.2,55.4,99,95,79,29.74,29.44,8,1,9,0.26
2012-9-5,79.0,72.5,66.0,73.8,69.1,64.5,99,90,68,29.44,29.24,14,2,14,0.25
2012-9-6,79.0,69.7,63.0,68.2,65.4,62.4,99,87,63,29.48,29.40,9,1,9,0.00
2012-9-7,85.0,72.7,63.0,70.2,64.9,56.1,99,80,39,29.49,29.42,8,1,8,0.00
2012-9-8,81.0,72.2,61.0,72.4,68.1,60.4,99,88,60,29.46,29.17,20,4,20,0.24
2012-9-9,75.0,62.2,54.0,60.4,57.0,52.1,98,85,48,29.47,29.30,7,1,7,0.01
2012-9-10,67.0,57.0,48.0,53.6,49.2,42.7,97,77,53,29.68,29.46,11,0,11,0.00
2012-9-11,74.0,58.1,44.0,50.6,45.2,37.9,97,67,31,29.85,29.68,10,1,10,0.00
2012-9-12,78.0,62.3,47.0,57.1,50.7,43.9,97,70,34,29.93,29.84,10,2,10,0.00
2012-9-13,82.0,67.5,53.0,61.0,57.4,52.2,98,73,43,29.93,29.77,10,2,10,0.00
2012-9-14,81.0,68.3,55.0,64.2,59.8,54.1,98,78,41,29.83,29.63,11,2,11,0.00
2012-9-15,74.0,62.6,51.0,62.4,52.2,42.5,98,73,38,29.66,29.53,13,2,13,0.00
2012-9-16,73.0,56.7,46.0,50.9,41.9,29.1,97,64,24,29.69,29.55,12,1,12,0.00
2012-9-17,75.0,59.8,42.0,56.4,47.8,40.0,97,69,34,29.71,29.57,10,2,10,0.00
2012-9-18,72.0,63.6,54.0,69.2,60.7,53.2,98,91,78,29.64,29.22,20,4,24,0.04
2012-9-19,72.0,60.7,45.0,61.4,45.6,37.1,98,61,30,29.83,29.33,17,1,17,0.90
2012-9-20,68.0,52.2,40.0,48.8,43.7,39.0,97,76,44,29.91,29.76,9,1,9,0.00
2012-9-21,67.0,51.8,43.0,54.0,48.1,40.9,97,88,59,29.81,29.66,7,0,7,0.00
2012-9-22,52.0,52.0,52.0,51.2,51.2,50.2,97,97,97,29.66,29.66,1,0,1,0.00
2012-9-24,48.0,48.0,48.0,42.1,41.9,41.5,80,79,78,29.73,29.73,5,2,5,0.00
2012-9-25,71.0,57.1,42.0,51.8,44.3,39.5,96,66,34,29.78,29.67,16,4,16,0.00
2012-9-26,71.0,62.5,56.0,62.4,58.4,51.8,98,87,71,29.73,29.56,18,4,18,0.00
2012-9-27,72.0,59.7,47.0,61.4,49.1,38.5,98,73,33,29.89,29.59,10,1,10,0.00
2012-9-28,50.0,46.3,43.0,49.2,45.4,41.9,97,97,92,29.91,29.79,2,0,5,0.23
2012-9-29,54.0,54.0,54.0,53.2,53.2,53.2,97,97,97,29.54,29.53,0,0,2,1.08
2012-9-30,59.0,53.9,50.0,57.4,53.0,49.2,98,97,91,29.34,29.31,6,3,9,0.06
2012-10-1,62.0,55.3,49.0,56.1,51.9,48.2,97,88,76,29.53,29.31,15,5,17,0.00
2012-10-2,67.0,58.4,53.0,60.1,55.5,52.2,98,91,66,29.66,29.53,7,2,11,0.05
2012-10-3,59.0,59.0,59.0,58.4,58.4,58.4,98,98,98,29.75,29.75,2,2,2,0.00
2012-10-4,58.0,57.2,57.0,57.4,56.7,56.4,98,98,98,29.77,29.76,1,0,1,0.03
2012-10-5,76.0,68.1,60.0,64.2,58.4,52.8,98,73,46,29.62,29.49,7,2,10,0.10
2012-10-6,75.0,61.1,47.0,62.0,56.0,45.1,98,85,56,29.55,29.24,12,3,17,0.00
2012-10-7,58.0,48.6,40.0,48.2,43.1,38.6,97,83,54,29.69,29.55,6,1,9,0.03
2012-10-8,55.0,48.4,43.0,50.3,44.5,41.9,97,87,65,29.97,29.84,6,0,7,0.07
2012-10-9,55.0,48.6,44.0,51.3,47.0,43.2,97,94,78,29.96,29.78,5,0,11,0.00
2012-10-10,53.0,48.3,45.0,52.2,47.5,44.2,97,97,97,29.78,29.54,7,0,7,0.02
2012-10-11,59.0,48.3,41.0,41.8,36.6,32.6,92,66,41,29.76,29.49,14,3,18,0.17
2012-10-12,55.0,43.1,30.0,43.5,33.1,23.0,97,70,36,29.98,29.62,9,2,12,0.03
2012-10-13,54.0,40.1,27.0,32.8,26.6,22.9,93,62,30,30.11,29.94,9,2,14,0.00
2012-10-14,60.0,54.0,42.0,57.0,50.4,30.9,97,88,63,29.94,29.52,7,3,10,0.47
2012-10-15,72.0,63.0,55.0,62.0,58.9,54.2,98,87,66,29.51,29.19,12,4,16,0.01
2012-10-16,56.0,47.4,37.0,43.4,38.0,35.2,96,72,48,29.53,29.24,13,2,17,0.10
2012-10-17,63.0,46.0,30.0,43.8,35.9,28.7,96,72,33,29.64,29.50,7,1,9,0.00
2012-10-18,67.0,49.9,37.0,49.7,43.5,36.0,97,82,42,29.76,29.63,6,1,10,0.00
2012-10-19,64.0,55.1,46.0,61.4,53.4,45.2,98,94,76,29.73,29.33,8,2,13,0.33
2012-10-20,73.0,65.3,54.0,65.8,51.1,43.3,98,62,41,29.35,29.17,9,4,14,0.38
2012-10-21,63.0,52.6,44.0,44.5,41.8,38.0,89,68,41,29.51,29.35,11,3,20,0.00
2012-10-22,67.0,53.5,45.0,45.4,42.0,38.6,96,68,39,29.64,29.47,10,2,17,0.00
2012-10-23,65.0,52.3,44.0,47.4,42.7,39.5,94,72,43,29.75,29.62,7,1,11,0.00
2012-10-24,58.0,47.4,37.0,41.7,37.8,30.8,96,72,46,29.87,29.74,7,1,9,0.00
2012-10-25,65.0,50.1,40.0,49.4,42.3,32.7,97,79,31,29.94,29.83,7,1,9,0.00
2012-10-26,67.0,53.4,43.0,55.5,49.7,41.9,97,88,63,29.90,29.71,9,1,11,0.00
2012-10-27,68.0,53.9,44.0,55.3,50.2,43.2,97,89,61,29.76,29.60,6,0,7,0.00
2012-10-28,53.0,50.0,47.0,51.3,47.9,44.4,97,93,81,29.65,29.51,6,1,15,0.03
2012-10-29,60.0,58.6,56.0,58.4,58.0,55.2,98,98,97,28.92,28.85,10,5,19,2.03
2012-10-30,67.0,61.6,56.0,62.0,59.1,55.2,98,92,72,29.18,29.10,12,2,14,0.17
2012-10-31,55.0,51.0,46.0,52.9,47.4,43.2,97,88,75,29.20,29.13,10,3,14,0.35
2012-11-1,53.0,47.0,42.0,43.8,41.6,38.9,95,82,63,29.21,29.12,12,3,14,0.00
2012-11-2,51.0,45.2,40.0,43.1,39.3,34.7,96,80,62,29.26,29.15,9,3,16,0.00
2012-11-3,53.0,43.0,37.0,37.6,35.1,32.4,90,74,52,29.45,29.25,11,3,15,0.00
2012-11-4,53.0,40.9,33.0,37.2,32.7,28.2,86,73,51,29.62,29.44,11,2,16,0.00
2012-11-5,45.0,34.5,24.0,28.8,22.3,15.6,80,62,40,29.83,29.61,9,2,12,0.00
2012-11-6,44.0,29.7,22.0,21.4,17.7,11.7,91,64,30,29.88,29.79,7,1,11,0.00
2012-11-7,35.0,31.5,25.0,28.5,19.3,13.3,94,62,41,29.84,29.46,10,2,13,0.00
2012-11-8,36.0,32.6,29.0,34.2,31.2,27.5,95,95,89,29.45,29.29,6,2,12,0.85
2012-11-9,53.0,41.4,34.0,34.1,29.0,22.7,90,64,33,29.69,29.39,9,3,15,0.04
2012-11-10,55.0,42.5,34.0,35.6,29.6,21.9,95,63,35,30.08,29.69,7,1,10,0.00
2012-11-11,61.0,48.4,35.0,46.3,40.3,31.9,95,75,50,30.10,29.95,10,3,16,0.00
2012-11-12,66.0,56.1,47.0,58.6,49.7,43.9,98,81,51,30.04,29.76,17,5,17,0.00
2012-11-13,63.0,46.1,34.0,61.4,44.3,29.8,98,93,81,30.05,29.65,12,3,17,0.30
2012-11-14,49.0,36.0,27.0,30.8,25.5,20.1,94,68,37,30.18,30.05,6,1,10,0.00
2012-11-15,46.0,33.5,23.0,31.7,26.9,21.3,95,79,46,30.12,29.93,7,1,10,0.00
2012-11-16,45.0,34.4,27.0,32.7,28.2,24.9,95,79,55,30.05,29.88,6,1,7,0.00
2012-11-17,49.0,36.4,28.0,32.9,29.0,25.6,95,76,48,30.28,30.05,7,1,10,0.00
2012-11-18,49.0,33.4,23.0,32.0,26.6,21.3,95,79,44,30.35,30.24,5,1,7,0.00
2012-11-19,51.0,34.5,24.0,35.6,28.7,21.0,95,81,52,30.26,29.90,6,0,7,0.00
2012-11-20,51.0,35.8,24.0,34.9,27.6,22.5,95,75,38,29.91,29.71,6,1,7,0.00
2012-11-21,51.0,38.2,32.0,39.5,31.7,25.3,96,78,52,29.89,29.78,6,0,7,0.00
2012-11-22,55.0,42.3,33.0,41.7,36.9,31.7,96,83,51,29.89,29.73,6,2,10,0.00
2012-11-23,57.0,43.3,29.0,44.2,39.1,27.5,97,86,56,29.73,29.23,10,2,12,0.00
2012-11-24,45.0,38.7,28.0,44.2,27.1,15.8,97,65,41,29.27,29.12,18,5,25,0.01
2012-11-25,36.0,31.2,27.0,24.3,17.2,8.6,76,57,34,29.45,29.27,12,6,20,0.00
2012-11-26,45.0,33.9,25.0,27.3,23.2,18.7,89,66,40,29.87,29.46,13,4,18,0.00
2012-11-27,35.0,30.0,24.0,32.7,27.9,22.2,95,92,82,29.92,29.85,7,1,9,0.03
2012-11-28,38.0,29.7,24.0,29.7,24.8,21.0,95,82,54,29.86,29.71,6,1,8,0.01
2012-11-29,41.0,33.5,23.0,25.9,22.6,18.0,93,66,42,29.86,29.72,14,6,18,0.00
2012-11-30,37.0,27.4,23.0,27.9,10.1,0.2,84,50,29,30.20,29.79,6,1,16,0.00
2012-12-1,25.0,24.1,21.0,23.5,18.8,4.1,94,82,40,30.28,30.14,3,0,6,0.00
2012-12-2,48.0,35.0,25.0,46.9,33.7,23.5,97,95,94,30.14,29.59,11,2,17,0.09
2012-12-3,57.0,45.4,33.0,47.3,41.9,31.7,97,89,61,29.92,29.58,11,2,15,0.02
2012-12-4,54.0,41.1,31.0,53.2,40.1,29.7,97,96,95,29.93,29.51,6,1,10,0.00
2012-12-5,56.0,45.4,28.0,55.2,36.0,15.1,97,71,51,29.77,29.37,15,5,20,0.02
2012-12-6,41.0,29.7,22.0,19.9,17.1,14.6,76,60,38,29.94,29.77,15,2,16,0.00
2012-12-7,41.0,31.4,20.0,38.0,27.9,15.3,96,87,72,29.94,29.63,7,2,9,0.03
2012-12-8,41.0,38.6,38.0,39.9,37.6,37.0,96,96,96,29.63,29.47,6,1,8,0.26
2012-12-9,47.0,39.2,34.0,39.9,35.0,29.1,96,86,51,29.91,29.54,6,1,10,0.06
2012-12-10,44.0,41.1,36.0,43.2,40.1,34.7,97,96,95,29.79,29.33,4,0,6,0.34
2012-12-11,45.0,35.9,27.0,40.1,30.3,23.1,92,80,65,29.77,29.41,10,2,15,0.05
2012-12-12,37.0,28.0,23.0,25.5,22.9,21.0,94,82,58,30.05,29.77,6,1,9,0.00
2012-12-13,43.0,30.9,23.0,29.9,24.4,21.3,94,78,48,30.08,29.90,7,1,7,0.00
2012-12-14,47.0,34.0,25.0,28.2,24.8,21.1,94,71,37,29.90,29.61,10,3,16,0.00
2012-12-15,42.0,31.3,21.0,28.4,21.7,12.1,93,70,32,29.99,29.76,5,1,9,0.00
2012-12-16,25.0,22.7,22.0,21.3,18.1,14.7,93,83,70,29.98,29.76,5,1,9,0.00
2012-12-17,31.0,26.4,22.0,29.7,24.9,20.3,95,94,93,29.77,29.55,5,1,9,0.00
2012-12-18,45.0,40.9,32.0,44.2,39.9,30.7,97,96,95,29.41,29.00,7,2,9,1.04
2012-12-19,45.0,37.7,31.0,38.0,33.8,29.7,96,86,68,29.66,29.06,10,2,15,0.04
2012-12-20,39.0,32.7,26.0,32.3,29.5,24.5,95,88,72,29.83,29.66,5,0,8,0.00
2012-12-21,49.0,39.7,32.0,46.5,37.6,30.7,97,92,83,29.67,28.67,12,4,17,0.82
2012-12-22,36.0,31.1,25.0,34.4,23.2,13.6,95,73,56,29.27,28.83,16,6,25,0.02
2012-12-23,37.0,29.0,20.0,24.3,18.3,12.0,79,65,45,29.46,29.26,14,5,20,0.00
2012-12-24,38.0,29.8,23.0,22.7,18.0,13.2,91,62,41,29.69,29.45,10,3,15,0.00
2012-12-25,33.0,26.4,21.0,27.6,21.1,14.0,94,81,67,29.86,29.61,6,0,9,0.00
2012-12-26,34.0,25.0,15.0,29.7,18.0,10.2,95,76,45,29.95,29.56,6,1,10,0.00
2012-12-27,34.0,30.9,28.0,32.7,29.5,26.5,95,95,94,29.56,28.92,10,2,19,0.12
2012-12-28,35.0,27.8,22.0,26.5,22.5,18.2,94,81,63,29.62,29.24,10,3,16,0.27
2012-12-29,29.0,25.1,21.0,26.5,22.8,19.3,94,91,78,29.63,29.07,5,1,8,0.00
2012-12-30,27.0,22.2,16.0,23.5,16.0,6.7,94,77,57,29.58,29.08,12,3,23,0.00
2012-12-31,31.0,23.3,11.0,24.9,17.1,7.0,89,77,67,29.63,29.35,10,4,14,0.10
2013-1-1,34.0,27.7,12.0,26.5,15.5,1.1,83,61,43,29.58,29.29,15,4,20,0.07